Time;durP1;ratioP1;P1;durP2;ratioP2;P2;SDS_P1;SDS_P2;PMS_P1;PMS_P2;Temp;Humidity;BMP_temperature;BMP_pressure;BME280_temperature;BME280_humidity;BME280_pressure;Samples;Min_cycle;Max_cycle;Signal;HPM_P1;HPM_P2
2022/09/26 00:01:54;;;;;;;11.02;7.38;;;11.00;99.90;;;;;;5054531;28;20210;-76
2022/09/26 00:04:23;;;;;;;9.90;6.43;;;11.10;99.90;;;;;;5053278;28;20200;-74
2022/09/26 00:06:51;;;;;;;9.63;5.43;;;11.00;99.90;;;;;;5046690;28;20311;-76
2022/09/26 00:09:18;;;;;;;8.10;6.60;;;11.00;99.90;;;;;;5058829;28;20212;-76
2022/09/26 00:11:45;;;;;;;8.63;5.50;;;11.00;99.90;;;;;;5062553;28;20215;-75
2022/09/26 00:14:17;;;;;;;12.32;6.85;;;11.00;99.90;;;;;;5063821;28;20214;-76
2022/09/26 00:16:44;;;;;;;11.98;7.60;;;11.00;99.90;;;;;;5042980;28;20204;-75
2022/09/26 00:19:12;;;;;;;9.95;6.40;;;11.00;99.90;;;;;;5042684;28;20214;-75
2022/09/26 00:21:41;;;;;;;7.43;5.85;;;11.00;99.90;;;;;;5043736;28;20204;-76
2022/09/26 00:24:08;;;;;;;6.30;5.68;;;10.90;99.90;;;;;;5052579;28;20231;-76
2022/09/26 00:26:36;;;;;;;15.20;5.55;;;10.90;99.90;;;;;;5048812;28;20279;-76
2022/09/26 00:29:06;;;;;;;8.65;6.45;;;10.90;99.90;;;;;;5047600;28;20653;-77
2022/09/26 00:31:37;;;;;;;10.07;5.88;;;10.90;99.90;;;;;;5039666;28;20283;-76
2022/09/26 00:34:05;;;;;;;6.40;5.80;;;10.90;99.90;;;;;;5042137;28;20305;-76
2022/09/26 00:36:32;;;;;;;7.28;5.05;;;10.90;99.90;;;;;;5038527;28;20258;-76
2022/09/26 00:39:00;;;;;;;8.93;6.57;;;10.90;99.90;;;;;;5043932;28;20195;-75
2022/09/26 00:41:27;;;;;;;9.25;6.40;;;10.90;99.90;;;;;;5049839;28;20205;-75
2022/09/26 00:43:56;;;;;;;11.88;6.00;;;10.90;99.90;;;;;;5047682;28;20283;-76
2022/09/26 00:46:30;;;;;;;9.77;5.90;;;10.90;99.90;;;;;;5040701;28;20196;-75
2022/09/26 00:49:07;;;;;;;5.65;5.15;;;10.90;99.90;;;;;;5038282;28;20195;-75
2022/09/26 00:51:37;;;;;;;7.68;4.85;;;10.90;99.90;;;;;;5039818;28;20292;-76
2022/09/26 00:54:10;;;;;;;6.90;5.15;;;10.90;99.90;;;;;;5042715;28;20201;-75
2022/09/26 00:56:38;;;;;;;6.65;5.68;;;10.90;99.90;;;;;;5042058;28;20241;-76
2022/09/26 00:59:10;;;;;;;13.57;5.93;;;10.80;99.90;;;;;;5038822;28;20660;-75
2022/09/26 01:01:37;;;;;;;6.65;5.35;;;10.80;99.90;;;;;;5037382;28;20288;-76
2022/09/26 01:04:06;;;;;;;5.75;4.93;;;10.90;99.90;;;;;;5037749;28;20203;-76
2022/09/26 01:06:33;;;;;;;9.93;6.30;;;10.90;99.90;;;;;;5036639;28;20283;-77
2022/09/26 01:09:07;;;;;;;8.45;5.13;;;11.00;99.90;;;;;;5043054;28;20315;-75
2022/09/26 01:11:35;;;;;;;10.35;5.97;;;11.10;99.90;;;;;;5044395;28;20605;-76
2022/09/26 01:14:03;;;;;;;11.95;4.43;;;11.00;99.90;;;;;;5041199;28;20287;-75
2022/09/26 01:16:32;;;;;;;10.10;5.07;;;11.10;99.90;;;;;;5045083;28;20260;-75
2022/09/26 01:18:59;;;;;;;8.30;5.72;;;11.10;99.90;;;;;;5036395;28;20571;-76
2022/09/26 01:21:48;;;;;;;7.75;4.70;;;11.20;99.90;;;;;;5041405;28;20204;-75
2022/09/26 01:24:38;;;;;;;5.60;4.63;;;11.20;99.90;;;;;;5046818;28;20196;-76
2022/09/26 01:27:28;;;;;;;6.45;5.25;;;11.20;99.90;;;;;;5021905;28;20220;-76
2022/09/26 01:30:13;;;;;;;8.85;4.95;;;11.20;99.90;;;;;;5051248;28;20199;-74
2022/09/26 01:33:10;;;;;;;8.57;5.25;;;11.20;99.90;;;;;;5049425;28;20214;-76
2022/09/26 01:35:55;;;;;;;6.72;4.43;;;11.20;99.90;;;;;;5033938;28;20242;-74
2022/09/26 01:38:29;;;;;;;5.60;4.28;;;11.30;99.90;;;;;;5035244;28;20221;-76
2022/09/26 01:41:09;;;;;;;6.35;4.18;;;11.30;99.90;;;;;;5022399;28;20296;-76
2022/09/26 01:43:42;;;;;;;9.13;5.25;;;11.10;99.90;;;;;;5022527;28;20206;-76
2022/09/26 01:46:18;;;;;;;7.35;5.07;;;11.10;99.90;;;;;;5048465;28;20232;-77
2022/09/26 01:48:50;;;;;;;9.27;4.82;;;11.20;99.90;;;;;;5033389;28;20667;-77
2022/09/26 01:51:22;;;;;;;6.22;4.75;;;11.20;99.90;;;;;;5035389;28;20201;-76
2022/09/26 01:53:53;;;;;;;6.20;4.47;;;11.10;99.90;;;;;;5050412;28;20600;-75
2022/09/26 01:56:24;;;;;;;4.45;4.05;;;11.10;99.90;;;;;;5053225;28;20209;-75
2022/09/26 01:58:54;;;;;;;5.15;4.45;;;11.20;99.90;;;;;;5058498;28;20223;-75
2022/09/26 02:01:33;;;;;;;8.93;4.68;;;11.20;99.90;;;;;;5052799;28;20229;-75
2022/09/26 02:04:05;;;;;;;6.53;5.28;;;11.20;99.90;;;;;;5045647;28;20283;-76
2022/09/26 02:06:37;;;;;;;6.35;4.07;;;11.20;99.90;;;;;;5046869;28;20192;-75
2022/09/26 02:09:10;;;;;;;5.30;4.63;;;11.20;99.90;;;;;;5047039;28;20200;-74
2022/09/26 02:11:43;;;;;;;8.18;5.22;;;11.20;99.90;;;;;;5064361;28;20263;-75
2022/09/26 02:14:16;;;;;;;5.43;4.50;;;11.20;99.90;;;;;;5055812;28;20200;-76
2022/09/26 02:16:48;;;;;;;7.07;4.70;;;11.20;99.90;;;;;;5046091;28;20626;-75
2022/09/26 02:19:19;;;;;;;8.20;4.80;;;11.10;99.90;;;;;;5051705;28;20234;-75
2022/09/26 02:21:47;;;;;;;4.68;4.28;;;11.20;99.90;;;;;;5064235;28;20206;-75
2022/09/26 02:24:14;;;;;;;5.80;5.20;;;11.20;99.90;;;;;;5057277;28;20202;-76
2022/09/26 02:26:42;;;;;;;9.43;4.13;;;11.30;99.90;;;;;;5052907;28;20287;-75
2022/09/26 02:29:09;;;;;;;5.03;4.32;;;11.30;99.90;;;;;;5057202;28;20205;-76
2022/09/26 02:31:44;;;;;;;9.18;5.93;;;11.30;99.90;;;;;;5060858;28;20202;-75
2022/09/26 02:34:12;;;;;;;6.35;3.90;;;11.30;99.90;;;;;;5058030;28;20203;-75
2022/09/26 02:36:39;;;;;;;6.30;3.80;;;11.40;99.90;;;;;;5058991;28;20271;-75
2022/09/26 02:39:06;;;;;;;5.78;3.92;;;11.40;99.90;;;;;;5048915;28;20224;-75
2022/09/26 02:41:42;;;;;;;5.30;4.53;;;11.40;99.90;;;;;;5050359;28;20252;-75
2022/09/26 02:44:27;;;;;;;7.40;5.15;;;11.40;99.90;;;;;;5059593;28;20536;-75
2022/09/26 02:47:12;;;;;;;15.57;4.65;;;11.50;99.90;;;;;;5036059;28;20214;-75
2022/09/26 02:50:07;;;;;;;13.48;6.05;;;11.60;99.90;;;;;;5048495;28;20664;-76
2022/09/26 02:52:40;;;;;;;4.68;4.18;;;11.60;99.90;;;;;;5042096;28;20202;-75
2022/09/26 02:55:14;;;;;;;5.88;4.22;;;11.50;99.90;;;;;;5047756;28;20243;-75
2022/09/26 02:57:53;;;;;;;6.18;4.40;;;11.60;99.90;;;;;;5057262;28;20328;-76
2022/09/26 03:00:24;;;;;;;8.43;5.07;;;11.60;99.90;;;;;;5053621;28;20201;-75
2022/09/26 03:02:58;;;;;;;6.68;4.32;;;11.70;99.90;;;;;;5055778;28;20625;-75
2022/09/26 03:05:29;;;;;;;6.50;4.28;;;11.70;99.90;;;;;;5057119;28;20234;-75
2022/09/26 03:08:02;;;;;;;3.88;3.45;;;11.70;99.90;;;;;;5053129;28;20224;-76
2022/09/26 03:10:31;;;;;;;7.13;4.65;;;11.70;99.90;;;;;;5049173;28;20201;-76
2022/09/26 03:13:06;;;;;;;6.43;4.70;;;11.70;99.90;;;;;;5053823;28;20207;-75
2022/09/26 03:15:35;;;;;;;4.80;4.20;;;11.70;99.90;;;;;;5045535;28;20217;-75
2022/09/26 03:18:38;;;;;;;8.82;4.68;;;11.70;99.90;;;;;;5052757;28;20316;-75
2022/09/26 03:21:06;;;;;;;11.82;5.07;;;11.80;99.90;;;;;;5057899;28;20285;-72
2022/09/26 03:24:02;;;;;;;7.00;4.15;;;11.70;99.90;;;;;;5059027;28;20670;-75
2022/09/26 03:26:31;;;;;;;6.65;3.95;;;11.60;99.90;;;;;;5051611;28;20278;-76
2022/09/26 03:32:21;;;;;;;10.55;4.35;;;11.70;99.90;;;;;;5050403;28;20249;-76
2022/09/26 03:34:48;;;;;;;5.40;4.90;;;11.70;99.90;;;;;;5055747;28;20200;-76
2022/09/26 03:37:16;;;;;;;5.25;4.57;;;11.60;99.90;;;;;;5056427;28;20225;-76
2022/09/26 03:39:43;;;;;;;5.38;4.88;;;11.60;99.90;;;;;;5042109;28;20211;-74
2022/09/26 03:42:18;;;;;;;6.60;4.60;;;11.60;99.90;;;;;;5057038;28;20194;-75
2022/09/26 03:44:45;;;;;;;11.23;4.43;;;11.60;99.90;;;;;;5049597;28;20196;-76
2022/09/26 03:47:13;;;;;;;9.10;5.00;;;11.50;99.90;;;;;;5045566;28;20303;-75
2022/09/26 03:49:40;;;;;;;6.25;4.50;;;11.50;99.90;;;;;;5054747;28;20249;-75
2022/09/26 03:52:13;;;;;;;6.32;3.38;;;11.50;99.90;;;;;;5052536;28;20207;-74
2022/09/26 03:54:41;;;;;;;5.70;5.10;;;11.50;99.90;;;;;;5051666;28;20212;-76
2022/09/26 03:57:09;;;;;;;6.40;4.13;;;11.50;99.90;;;;;;5043994;28;20247;-76
2022/09/26 03:59:36;;;;;;;6.40;3.80;;;11.50;99.90;;;;;;5054413;28;20279;-75
2022/09/26 04:02:04;;;;;;;6.60;4.80;;;11.60;99.90;;;;;;5055092;28;20480;-75
2022/09/26 04:04:32;;;;;;;5.78;4.35;;;11.60;99.90;;;;;;5057398;28;20259;-74
2022/09/26 04:07:02;;;;;;;7.22;4.80;;;11.60;99.90;;;;;;5053239;28;20244;-75
2022/09/26 04:09:29;;;;;;;8.88;4.40;;;11.50;99.90;;;;;;5053800;28;20292;-76
2022/09/26 04:11:58;;;;;;;5.30;4.85;;;11.60;99.90;;;;;;5047269;28;20201;-76
2022/09/26 04:14:25;;;;;;;6.70;5.40;;;11.70;99.90;;;;;;5047227;28;20727;-75
2022/09/26 04:16:52;;;;;;;7.30;5.50;;;11.60;99.90;;;;;;5054263;28;20225;-76
2022/09/26 04:19:19;;;;;;;6.40;5.43;;;11.70;99.90;;;;;;5049715;28;20209;-76
2022/09/26 04:21:46;;;;;;;4.88;4.13;;;11.60;99.90;;;;;;5049108;28;20496;-75
2022/09/26 04:24:14;;;;;;;10.38;4.35;;;11.70;99.90;;;;;;5059318;28;20206;-74
2022/09/26 04:26:42;;;;;;;5.95;4.30;;;11.70;99.90;;;;;;5048520;28;20211;-77
2022/09/26 04:29:11;;;;;;;7.93;4.75;;;11.80;99.90;;;;;;5050304;28;20287;-76
2022/09/26 04:31:40;;;;;;;4.22;3.83;;;11.80;99.90;;;;;;5051708;28;20230;-74
2022/09/26 04:34:09;;;;;;;10.15;4.78;;;11.80;99.90;;;;;;5059267;28;20562;-75
2022/09/26 04:36:39;;;;;;;5.25;4.35;;;11.80;99.90;;;;;;5043071;28;20609;-75
2022/09/26 04:39:06;;;;;;;4.75;3.90;;;11.70;99.90;;;;;;5040903;28;20274;-76
2022/09/26 04:41:34;;;;;;;5.18;4.68;;;11.80;99.90;;;;;;5042078;28;20618;-76
2022/09/26 04:44:01;;;;;;;4.65;4.22;;;11.80;99.90;;;;;;5035473;28;20213;-77
2022/09/26 04:46:30;;;;;;;4.55;4.10;;;11.90;99.90;;;;;;5050814;28;20220;-76
2022/09/26 04:48:59;;;;;;;6.45;3.88;;;11.80;99.90;;;;;;5047591;28;20198;-77
2022/09/26 04:51:28;;;;;;;6.20;4.97;;;11.80;99.90;;;;;;5041003;28;20198;-75
2022/09/26 04:53:55;;;;;;;8.75;4.63;;;11.80;99.90;;;;;;5042627;28;20200;-75
2022/09/26 04:56:24;;;;;;;5.15;4.65;;;11.80;99.90;;;;;;5055340;28;20242;-77
2022/09/26 04:58:53;;;;;;;7.22;4.55;;;11.80;99.90;;;;;;5053255;28;20228;-77
2022/09/26 05:01:22;;;;;;;7.93;5.10;;;11.70;99.90;;;;;;5056947;28;20218;-73
2022/09/26 05:03:50;;;;;;;8.13;4.88;;;11.80;99.90;;;;;;5051877;28;20307;-73
2022/09/26 05:06:18;;;;;;;6.07;4.15;;;11.80;99.90;;;;;;5051230;28;20661;-73
2022/09/26 05:08:47;;;;;;;9.82;4.63;;;11.80;99.90;;;;;;5045660;28;20220;-74
2022/09/26 05:11:15;;;;;;;7.50;5.22;;;11.80;99.90;;;;;;5045670;28;20309;-75
2022/09/26 05:13:43;;;;;;;7.60;5.35;;;11.80;99.90;;;;;;5045582;28;20204;-75
2022/09/26 05:16:11;;;;;;;6.78;4.25;;;11.80;99.90;;;;;;5045761;28;20228;-78
2022/09/26 05:18:38;;;;;;;5.90;5.30;;;11.70;99.90;;;;;;5042669;28;20734;-75
2022/09/26 05:21:07;;;;;;;7.30;5.60;;;11.70;99.90;;;;;;5045995;28;20207;-76
2022/09/26 05:26:24;;;;;;;7.43;4.30;;;11.60;99.90;;;;;;5044687;28;20195;-78
2022/09/26 05:28:53;;;;;;;7.55;5.20;;;11.60;99.90;;;;;;5062070;28;20247;-76
2022/09/26 05:31:22;;;;;;;6.38;5.43;;;11.60;99.90;;;;;;5057037;28;20212;-79
2022/09/26 05:33:50;;;;;;;6.22;4.50;;;11.50;99.90;;;;;;5053481;28;20294;-76
2022/09/26 05:36:19;;;;;;;6.40;5.45;;;11.60;99.90;;;;;;5049169;28;20217;-82
2022/09/26 05:38:46;;;;;;;9.52;5.60;;;11.50;99.90;;;;;;5055249;28;20314;-77
2022/09/26 05:41:13;;;;;;;12.25;5.47;;;11.50;99.90;;;;;;5062607;28;20209;-81
2022/09/26 05:43:41;;;;;;;7.78;6.05;;;11.60;99.90;;;;;;5057731;28;20649;-80
2022/09/26 05:46:09;;;;;;;9.98;5.78;;;11.70;99.90;;;;;;5045915;28;20223;-77
2022/09/26 05:48:37;;;;;;;7.80;6.25;;;11.70;99.90;;;;;;5050139;28;20230;-78
2022/09/26 05:51:09;;;;;;;8.55;5.82;;;11.80;99.90;;;;;;5057070;28;20232;-77
2022/09/26 05:53:39;;;;;;;7.05;5.05;;;11.80;99.90;;;;;;5055708;28;20664;-79
2022/09/26 05:56:06;;;;;;;6.80;6.10;;;11.80;99.90;;;;;;5040464;28;20248;-79
2022/09/26 05:58:43;;;;;;;8.80;6.18;;;11.70;99.90;;;;;;5055537;28;20350;-78
2022/09/26 06:01:13;;;;;;;8.88;6.13;;;11.80;99.90;;;;;;5048776;28;20238;-79
2022/09/26 06:03:42;;;;;;;6.47;5.57;;;11.90;99.90;;;;;;5052597;28;20629;-81
2022/09/26 06:06:11;;;;;;;6.93;5.93;;;11.90;99.90;;;;;;5054910;28;20193;-81
2022/09/26 06:08:40;;;;;;;7.93;6.90;;;11.90;99.90;;;;;;5051566;28;20688;-79
2022/09/26 06:11:09;;;;;;;6.95;6.00;;;11.90;99.90;;;;;;5048582;28;20206;-79
2022/09/26 06:13:36;;;;;;;12.48;7.00;;;12.00;99.90;;;;;;5043115;28;20236;-82
2022/09/26 06:16:06;;;;;;;13.27;6.47;;;12.10;99.90;;;;;;5056246;28;20283;-79
2022/09/26 06:18:35;;;;;;;8.75;5.30;;;12.20;99.90;;;;;;5046218;28;20260;-78
2022/09/26 06:21:03;;;;;;;8.00;6.72;;;12.20;99.90;;;;;;5048679;28;20209;-80
2022/09/26 06:23:30;;;;;;;7.28;6.55;;;12.30;99.90;;;;;;5052249;28;20194;-80
2022/09/26 06:25:59;;;;;;;10.73;6.20;;;12.20;99.90;;;;;;5049056;28;20682;-77
2022/09/26 06:28:26;;;;;;;8.70;7.35;;;12.20;99.90;;;;;;5042118;28;20229;-82
2022/09/26 06:30:53;;;;;;;12.68;9.80;;;12.20;99.90;;;;;;5050539;28;20253;-77
2022/09/26 06:33:20;;;;;;;8.05;7.05;;;12.20;99.90;;;;;;5050811;28;20336;-79
2022/09/26 06:35:48;;;;;;;11.90;6.75;;;12.20;99.90;;;;;;5046746;28;20229;-78
2022/09/26 06:38:14;;;;;;;11.35;7.65;;;12.30;99.90;;;;;;5049241;28;20620;-78
2022/09/26 06:40:41;;;;;;;21.42;7.50;;;12.40;99.90;;;;;;5048803;28;20229;-76
2022/09/26 06:43:10;;;;;;;9.57;7.78;;;12.30;99.90;;;;;;5049121;28;20269;-76
2022/09/26 06:45:37;;;;;;;9.68;7.30;;;12.50;99.90;;;;;;5042693;28;20233;-76
2022/09/26 06:48:03;;;;;;;9.88;7.50;;;12.40;99.90;;;;;;5047223;28;20228;-75
2022/09/26 06:50:30;;;;;;;14.60;8.55;;;12.40;99.90;;;;;;5048068;28;20200;-75
2022/09/26 06:52:57;;;;;;;10.65;7.10;;;12.40;99.90;;;;;;5044299;28;20289;-74
2022/09/26 06:55:24;;;;;;;9.80;7.63;;;12.30;99.90;;;;;;5041284;28;20218;-76
2022/09/26 06:57:52;;;;;;;8.15;7.28;;;12.30;99.90;;;;;;5043002;28;20225;-74
2022/09/26 07:00:22;;;;;;;12.80;6.93;;;12.50;99.90;;;;;;5043874;28;20259;-74
2022/09/26 07:02:50;;;;;;;10.50;7.97;;;12.60;99.90;;;;;;5051138;28;20235;-76
2022/09/26 07:05:19;;;;;;;12.60;7.68;;;12.50;99.90;;;;;;5044577;28;20203;-75
2022/09/26 07:07:47;;;;;;;7.90;6.60;;;12.50;99.90;;;;;;5041703;28;20245;-76
2022/09/26 07:10:18;;;;;;;10.25;8.00;;;12.60;99.90;;;;;;5050376;28;20200;-76
2022/09/26 07:12:46;;;;;;;9.88;6.88;;;12.70;99.90;;;;;;5047804;28;20204;-76
2022/09/26 07:15:15;;;;;;;10.60;7.15;;;12.70;99.90;;;;;;5052283;28;20222;-76
2022/09/26 07:17:44;;;;;;;10.20;7.63;;;12.80;99.90;;;;;;5050914;28;20233;-75
2022/09/26 07:20:12;;;;;;;11.82;6.50;;;12.90;99.90;;;;;;5042595;28;20206;-76
2022/09/26 07:22:42;;;;;;;11.35;8.05;;;12.90;99.90;;;;;;5043910;28;20209;-75
2022/09/26 07:25:10;;;;;;;11.40;8.50;;;13.10;99.90;;;;;;5039537;28;20213;-76
2022/09/26 07:27:37;;;;;;;8.63;7.72;;;13.20;99.90;;;;;;5042552;28;20218;-75
2022/09/26 07:30:06;;;;;;;14.45;7.82;;;13.40;99.90;;;;;;5046321;28;20203;-75
2022/09/26 07:32:35;;;;;;;14.73;9.13;;;13.40;99.90;;;;;;5049002;28;20196;-75
2022/09/26 07:35:04;;;;;;;8.02;7.22;;;13.30;99.90;;;;;;5042456;28;20200;-77
2022/09/26 07:37:32;;;;;;;11.98;7.57;;;13.30;99.90;;;;;;5042873;28;20745;-78
2022/09/26 07:40:01;;;;;;;10.00;8.20;;;13.30;99.90;;;;;;5041482;28;20203;-79
2022/09/26 07:42:29;;;;;;;11.85;9.38;;;13.40;99.90;;;;;;5045242;28;20688;-75
2022/09/26 07:44:55;;;;;;;8.50;7.80;;;13.40;99.90;;;;;;5052947;28;20292;-77
2022/09/26 07:50:12;;;;;;;16.92;9.02;;;13.60;99.90;;;;;;5043819;28;20217;-75
2022/09/26 07:52:39;;;;;;;11.40;9.93;;;13.60;99.90;;;;;;5046587;28;20196;-76
2022/09/26 07:55:06;;;;;;;18.52;9.10;;;13.70;99.90;;;;;;5052114;28;20203;-76
2022/09/26 07:57:34;;;;;;;11.13;9.80;;;13.80;99.90;;;;;;5048858;28;20334;-77
2022/09/26 08:00:01;;;;;;;9.23;8.20;;;13.90;99.90;;;;;;5045422;28;20215;-76
2022/09/26 08:02:33;;;;;;;12.77;10.88;;;14.00;99.90;;;;;;5042281;28;20208;-77
2022/09/26 08:05:02;;;;;;;14.30;8.98;;;14.00;99.90;;;;;;5038060;28;20200;-76
2022/09/26 08:07:30;;;;;;;11.45;8.60;;;14.00;99.90;;;;;;5038481;28;20251;-77
2022/09/26 08:10:00;;;;;;;14.18;9.70;;;13.90;99.90;;;;;;5037397;28;20661;-75
2022/09/26 08:12:34;;;;;;;16.02;8.57;;;13.90;99.90;;;;;;5042457;28;20200;-78
2022/09/26 08:15:01;;;;;;;11.95;8.93;;;13.60;99.90;;;;;;5047715;28;20563;-77
2022/09/26 08:17:31;;;;;;;9.77;7.57;;;13.60;99.90;;;;;;5035774;28;20314;-77
2022/09/26 08:19:58;;;;;;;10.38;7.07;;;13.80;99.90;;;;;;5038090;28;20205;-77
2022/09/26 08:22:25;;;;;;;8.95;8.00;;;13.90;99.90;;;;;;5060490;28;20288;-76
2022/09/26 08:24:57;;;;;;;8.88;6.97;;;13.90;99.90;;;;;;5040679;28;20711;-76
2022/09/26 08:27:24;;;;;;;12.57;8.57;;;14.00;99.90;;;;;;5040272;28;20273;-76
2022/09/26 08:29:52;;;;;;;10.50;9.25;;;14.00;99.90;;;;;;5039118;28;20197;-78
2022/09/26 08:32:20;;;;;;;8.85;7.95;;;14.20;99.90;;;;;;5043374;28;20227;-77
2022/09/26 08:34:48;;;;;;;9.48;7.15;;;14.30;99.90;;;;;;5045486;28;20564;-76
2022/09/26 08:37:15;;;;;;;9.57;7.20;;;14.40;99.90;;;;;;5042899;28;20224;-76
2022/09/26 08:39:43;;;;;;;12.80;8.23;;;14.50;99.90;;;;;;5047048;28;20204;-77
2022/09/26 08:42:28;;;;;;;9.38;7.50;;;14.70;99.90;;;;;;5044458;28;20211;-77
2022/09/26 08:48:03;;;;;;;13.32;9.15;;;14.50;99.90;;;;;;5044007;28;20207;-75
2022/09/26 08:50:39;;;;;;;9.77;7.65;;;14.50;99.90;;;;;;5040382;28;20199;-77
2022/09/26 08:53:09;;;;;;;14.32;7.03;;;14.50;99.90;;;;;;5027071;28;20249;-76
2022/09/26 08:55:41;;;;;;;9.57;8.25;;;14.60;99.90;;;;;;5047622;28;20226;-77
2022/09/26 08:58:15;;;;;;;8.13;7.05;;;14.30;99.90;;;;;;5053867;28;20220;-77
2022/09/26 09:00:42;;;;;;;12.48;6.20;;;14.40;99.90;;;;;;5036041;28;20208;-77
2022/09/26 09:03:21;;;;;;;10.88;7.90;;;14.40;99.90;;;;;;5053692;28;20238;-78
2022/09/26 09:05:52;;;;;;;16.52;9.13;;;14.50;99.90;;;;;;5042303;28;20291;-78
2022/09/26 09:08:22;;;;;;;10.45;7.50;;;14.40;99.90;;;;;;5050640;28;20219;-77
2022/09/26 09:10:57;;;;;;;10.82;7.82;;;14.50;99.90;;;;;;5039825;28;20222;-77
2022/09/26 09:13:45;;;;;;;9.32;7.55;;;14.50;99.90;;;;;;5029752;28;20221;-78
2022/09/26 09:16:26;;;;;;;8.30;6.55;;;14.50;99.90;;;;;;5046285;28;20266;-76
2022/09/26 09:19:03;;;;;;;8.52;5.90;;;14.50;99.90;;;;;;5032848;28;20262;-77
2022/09/26 09:21:41;;;;;;;7.40;5.68;;;14.40;99.90;;;;;;5046090;28;20202;-77
2022/09/26 09:24:18;;;;;;;8.18;7.10;;;14.40;99.90;;;;;;5029151;28;20672;-76
2022/09/26 09:26:57;;;;;;;7.57;6.38;;;14.40;99.90;;;;;;5040764;28;20615;-79
2022/09/26 09:29:46;;;;;;;7.55;6.50;;;14.30;99.90;;;;;;5024724;28;20286;-78
2022/09/26 09:32:17;;;;;;;10.73;6.28;;;14.50;99.90;;;;;;5050230;28;20199;-79
2022/09/26 09:34:46;;;;;;;8.05;6.60;;;14.40;99.90;;;;;;5045799;28;20275;-78
2022/09/26 09:37:19;;;;;;;12.73;7.78;;;14.20;99.90;;;;;;5044478;28;20281;-78
2022/09/26 09:39:49;;;;;;;14.23;7.55;;;14.40;99.90;;;;;;5036204;28;20254;-77
2022/09/26 09:42:23;;;;;;;8.30;6.32;;;14.20;99.90;;;;;;5048892;28;20709;-75
2022/09/26 09:44:57;;;;;;;11.63;7.68;;;14.00;99.90;;;;;;5029788;28;20558;-76
2022/09/26 09:47:28;;;;;;;8.07;6.78;;;14.00;99.90;;;;;;5037908;28;20311;-76
2022/09/26 09:49:58;;;;;;;12.35;7.43;;;13.90;99.90;;;;;;5033073;28;20219;-76
2022/09/26 09:52:47;;;;;;;12.48;7.43;;;13.90;99.90;;;;;;5034587;28;20205;-75
2022/09/26 09:55:32;;;;;;;10.18;6.93;;;13.90;99.90;;;;;;5037851;28;20291;-76
2022/09/26 09:58:20;;;;;;;9.13;7.50;;;13.90;99.90;;;;;;5033958;28;20216;-76
2022/09/26 10:01:00;;;;;;;11.60;6.75;;;13.90;99.90;;;;;;5028477;28;20199;-76
2022/09/26 10:03:32;;;;;;;11.82;6.60;;;13.90;99.90;;;;;;5037412;28;20235;-76
2022/09/26 10:06:01;;;;;;;11.25;7.28;;;13.80;99.90;;;;;;5039818;28;20607;-76
2022/09/26 10:08:30;;;;;;;8.68;6.65;;;13.70;99.90;;;;;;5039174;28;20211;-75
2022/09/26 10:11:22;;;;;;;10.00;7.07;;;13.60;99.90;;;;;;5052595;28;20577;-75
2022/09/26 10:13:54;;;;;;;16.65;7.47;;;13.60;99.90;;;;;;5042022;28;20672;-75
2022/09/26 10:16:23;;;;;;;9.32;6.95;;;13.50;99.90;;;;;;5052212;28;20214;-75
2022/09/26 10:19:00;;;;;;;6.65;6.00;;;13.40;99.90;;;;;;5039581;28;20690;-75
2022/09/26 10:21:32;;;;;;;13.82;9.13;;;13.40;99.90;;;;;;5051472;28;20195;-75
2022/09/26 10:24:02;;;;;;;13.65;8.45;;;13.30;99.90;;;;;;5047046;28;20200;-76
2022/09/26 10:26:33;;;;;;;10.20;7.70;;;13.30;99.90;;;;;;5046423;28;20203;-74
2022/09/26 10:29:05;;;;;;;11.30;8.43;;;13.30;99.90;;;;;;5047519;28;20555;-74
2022/09/26 10:31:37;;;;;;;8.38;7.45;;;13.30;99.90;;;;;;5044830;28;20208;-76
2022/09/26 10:34:07;;;;;;;11.18;7.78;;;13.30;99.90;;;;;;5047363;28;20204;-73
2022/09/26 10:36:36;;;;;;;8.63;7.68;;;13.50;99.90;;;;;;5047918;28;20292;-75
2022/09/26 10:42:00;;;;;;;8.95;7.57;;;13.70;99.90;;;;;;5058220;28;20570;-74
2022/09/26 10:44:32;;;;;;;11.13;7.88;;;13.70;99.90;;;;;;5056020;28;20200;-73
2022/09/26 10:47:07;;;;;;;10.02;7.55;;;13.70;99.90;;;;;;5063923;28;20217;-74
2022/09/26 10:49:45;;;;;;;16.98;8.98;;;13.90;99.90;;;;;;5040317;28;20203;-73
2022/09/26 10:52:17;;;;;;;10.65;9.18;;;14.10;99.90;;;;;;5048543;28;20207;-74
2022/09/26 10:54:48;;;;;;;13.25;8.93;;;14.10;99.90;;;;;;5058863;28;20213;-73
2022/09/26 10:57:22;;;;;;;11.75;9.70;;;14.20;99.90;;;;;;5054720;28;20223;-74
2022/09/26 10:59:50;;;;;;;10.43;8.73;;;14.10;99.90;;;;;;5051123;28;20206;-75
2022/09/26 11:02:23;;;;;;;11.80;7.90;;;14.00;99.90;;;;;;5050146;28;20204;-74
2022/09/26 11:07:43;;;;;;;11.57;8.00;;;14.20;99.90;;;;;;5043401;28;20222;-73
2022/09/26 11:10:13;;;;;;;7.40;6.70;;;14.30;99.90;;;;;;5047874;28;20283;-75
2022/09/26 11:12:57;;;;;;;15.65;8.63;;;14.40;99.90;;;;;;5046319;28;20204;-72
2022/09/26 11:15:24;;;;;;;10.25;8.23;;;14.40;99.90;;;;;;5040546;28;20948;-73
2022/09/26 11:17:54;;;;;;;10.43;7.88;;;14.30;99.90;;;;;;5046489;28;20285;-75
2022/09/26 11:20:43;;;;;;;10.73;8.07;;;14.10;99.90;;;;;;5050797;28;20214;-72
2022/09/26 11:23:21;;;;;;;9.85;7.70;;;14.00;99.90;;;;;;5047914;28;20234;-73
2022/09/26 11:25:56;;;;;;;10.05;6.70;;;13.90;99.90;;;;;;5028378;28;20265;-74
2022/09/26 11:28:31;;;;;;;12.50;9.00;;;13.90;99.90;;;;;;5047662;28;20368;-74
2022/09/26 11:31:04;;;;;;;10.65;7.25;;;13.80;99.90;;;;;;5028820;28;20199;-74
2022/09/26 11:33:33;;;;;;;8.52;6.32;;;13.90;99.90;;;;;;5041116;28;20253;-74
2022/09/26 11:36:15;;;;;;;8.27;6.47;;;14.00;99.90;;;;;;5041554;28;20619;-74
2022/09/26 11:38:46;;;;;;;11.30;7.40;;;14.10;99.90;;;;;;5050592;28;20242;-76
2022/09/26 11:41:37;;;;;;;9.00;6.95;;;14.00;99.90;;;;;;5034649;28;20650;-74
2022/09/26 11:44:28;;;;;;;16.40;7.95;;;14.00;99.90;;;;;;5034706;28;20251;-74
2022/09/26 11:47:15;;;;;;;10.57;5.68;;;14.10;99.90;;;;;;5035970;28;20219;-75
2022/09/26 11:50:01;;;;;;;7.88;5.65;;;14.20;99.90;;;;;;5028695;28;20359;-74
2022/09/26 11:52:42;;;;;;;6.95;6.25;;;14.10;99.90;;;;;;5035623;28;20246;-74
2022/09/26 11:55:18;;;;;;;7.40;6.70;;;14.10;99.90;;;;;;5037320;28;20205;-74
2022/09/26 11:57:52;;;;;;;5.95;5.32;;;14.10;99.90;;;;;;5036698;28;20366;-73
2022/09/26 12:00:26;;;;;;;5.93;5.40;;;14.10;99.90;;;;;;5023599;28;20199;-75
2022/09/26 12:03:32;;;;;;;6.40;5.00;;;14.20;99.90;;;;;;5024525;28;20196;-75
2022/09/26 12:06:11;;;;;;;6.30;5.53;;;14.10;99.90;;;;;;5041178;28;20228;-74
2022/09/26 12:09:17;;;;;;;8.57;6.43;;;14.20;99.90;;;;;;5033017;28;20215;-74
2022/09/26 12:11:53;;;;;;;8.20;6.25;;;14.00;99.90;;;;;;5036068;28;20218;-74
2022/09/26 12:14:37;;;;;;;9.35;7.05;;;14.00;99.90;;;;;;5043952;28;20296;-74
2022/09/26 12:17:14;;;;;;;8.68;6.13;;;13.90;99.90;;;;;;5035241;28;20227;-74
2022/09/26 12:19:50;;;;;;;10.52;6.72;;;13.70;99.90;;;;;;5026009;28;20735;-75
2022/09/26 12:22:31;;;;;;;12.38;6.95;;;13.70;99.90;;;;;;5039247;28;20279;-74
2022/09/26 12:25:33;;;;;;;7.32;6.63;;;13.40;99.90;;;;;;5027683;28;20206;-74
2022/09/26 12:28:20;;;;;;;10.25;6.72;;;13.50;99.90;;;;;;5043958;28;20226;-74
2022/09/26 12:31:00;;;;;;;8.52;6.63;;;13.50;99.90;;;;;;5054317;28;20211;-74
2022/09/26 12:33:59;;;;;;;12.75;7.00;;;13.30;99.90;;;;;;5041372;28;20579;-73
2022/09/26 12:36:46;;;;;;;9.45;8.40;;;13.30;99.90;;;;;;5028465;28;20206;-73
2022/09/26 12:39:35;;;;;;;9.13;8.23;;;13.30;99.90;;;;;;5029068;28;20685;-74
2022/09/26 12:42:15;;;;;;;11.75;9.02;;;13.30;99.90;;;;;;5051732;28;20204;-73
2022/09/26 12:45:10;;;;;;;13.23;8.63;;;13.40;99.90;;;;;;5034675;28;20895;-73
2022/09/26 12:48:01;;;;;;;8.57;7.72;;;13.40;99.90;;;;;;5024812;28;20366;-75
2022/09/26 12:50:41;;;;;;;10.27;8.30;;;13.50;99.90;;;;;;5040933;28;20225;-74
2022/09/26 12:53:34;;;;;;;8.75;6.95;;;13.40;99.90;;;;;;5038428;28;20210;-73
2022/09/26 12:56:06;;;;;;;12.10;7.65;;;13.40;99.90;;;;;;5024910;28;20240;-73
2022/09/26 12:59:05;;;;;;;11.98;7.38;;;13.30;99.90;;;;;;5044992;28;20538;-72
2022/09/26 13:01:59;;;;;;;10.02;7.45;;;13.20;99.90;;;;;;5047246;28;20192;-73
2022/09/26 13:04:57;;;;;;;7.45;6.65;;;13.10;99.90;;;;;;5048415;28;20212;-76
2022/09/26 13:07:40;;;;;;;11.00;6.80;;;13.00;99.90;;;;;;5030457;28;20318;-73
2022/09/26 13:10:30;;;;;;;6.88;6.25;;;13.10;99.90;;;;;;5039597;28;20198;-74
2022/09/26 13:13:34;;;;;;;9.38;5.70;;;13.10;99.90;;;;;;5042698;28;20603;-76
2022/09/26 13:16:15;;;;;;;8.75;6.43;;;13.10;99.90;;;;;;5044722;28;20245;-74
2022/09/26 13:18:46;;;;;;;6.97;6.28;;;13.20;99.90;;;;;;5028698;28;20386;-73
2022/09/26 13:21:17;;;;;;;8.27;6.13;;;13.00;99.90;;;;;;5031466;28;20202;-75
2022/09/26 13:23:52;;;;;;;10.55;5.95;;;13.10;99.90;;;;;;5048663;28;20206;-74
2022/09/26 13:26:25;;;;;;;7.72;5.47;;;13.10;99.90;;;;;;5052498;28;20293;-74
2022/09/26 13:28:56;;;;;;;8.00;6.20;;;13.00;99.90;;;;;;5051751;28;20701;-74
2022/09/26 13:31:28;;;;;;;10.18;5.20;;;12.90;99.90;;;;;;5051450;28;20276;-75